Time;durP1;ratioP1;P1;durP2;ratioP2;P2;SDS_P1;SDS_P2;PMS_P1;PMS_P2;Temp;Humidity;BMP_temperature;BMP_pressure;BME280_temperature;BME280_humidity;BME280_pressure;Samples;Min_cycle;Max_cycle;Signal;HPM_P1;HPM_P2
2021/11/12 00:13:39;;;;;;;16.90;11.73;;;9.30;73.10;;;;;;5022953;28;20048;-77
2021/11/12 00:15:52;;;;;;;17.23;12.25;;;9.30;72.30;;;;;;5006715;28;20437;-76
2021/11/12 00:18:21;;;;;;;20.27;13.25;;;9.10;73.00;;;;;;5011210;28;20047;-77
2021/11/12 00:20:47;;;;;;;22.25;14.20;;;9.10;73.10;;;;;;5009038;28;20037;-77
2021/11/12 00:23:13;;;;;;;22.42;16.15;;;9.10;73.50;;;;;;5009535;28;20449;-77
2021/11/12 00:25:42;;;;;;;23.50;15.73;;;9.10;73.50;;;;;;5009562;28;20022;-76
2021/11/12 00:28:08;;;;;;;23.88;16.00;;;8.90;73.60;;;;;;4994387;28;20425;-76
2021/11/12 00:35:48;;;;;;;22.98;16.63;;;9.10;73.90;;;;;;5009243;28;20049;-77
2021/11/12 00:38:16;;;;;;;23.70;16.77;;;9.20;73.60;;;;;;5009155;28;20061;-78
2021/11/12 00:41:13;;;;;;;23.65;15.85;;;9.10;73.80;;;;;;5009313;28;20030;-77
2021/11/12 00:43:42;;;;;;;23.00;16.25;;;9.10;73.80;;;;;;5009299;28;20022;-76
2021/11/12 00:48:55;;;;;;;20.92;14.63;;;9.10;73.90;;;;;;5003859;28;20092;-77
2021/11/12 00:51:31;;;;;;;18.63;14.35;;;9.10;74.00;;;;;;5011044;28;20084;-77
2021/11/12 00:56:29;;;;;;;18.73;14.07;;;9.00;74.20;;;;;;5009065;28;20038;-76
2021/11/12 00:58:57;;;;;;;19.17;14.15;;;9.10;74.50;;;;;;5009081;28;20066;-77
2021/11/12 01:01:25;;;;;;;18.67;13.55;;;9.10;74.60;;;;;;5019099;28;20030;-77
2021/11/12 01:03:52;;;;;;;19.40;13.93;;;9.20;74.20;;;;;;5010804;28;20018;-77
2021/11/12 01:06:18;;;;;;;21.83;13.70;;;9.20;73.60;;;;;;5010111;28;20444;-77
2021/11/12 01:08:44;;;;;;;21.55;14.10;;;9.10;73.80;;;;;;5008801;28;20486;-76
2021/11/12 01:11:11;;;;;;;19.30;13.60;;;9.10;74.60;;;;;;5008852;28;20498;-77
2021/11/12 01:13:38;;;;;;;19.27;13.35;;;9.00;74.20;;;;;;4992183;28;20108;-77
2021/11/12 01:16:04;;;;;;;17.92;13.10;;;9.00;74.80;;;;;;4994822;28;20088;-75
2021/11/12 01:18:34;;;;;;;18.90;13.05;;;9.10;74.30;;;;;;5007192;28;20036;-77
2021/11/12 01:20:59;;;;;;;19.88;14.10;;;9.10;74.50;;;;;;5010837;28;20563;-76
2021/11/12 01:23:25;;;;;;;20.42;13.57;;;9.10;74.00;;;;;;5008627;28;20030;-76
2021/11/12 01:25:51;;;;;;;20.10;13.55;;;9.00;74.30;;;;;;5009102;28;20432;-77
2021/11/12 01:28:17;;;;;;;19.90;13.40;;;9.00;74.50;;;;;;5008689;28;20030;-76
2021/11/12 01:30:42;;;;;;;19.45;13.45;;;9.10;75.10;;;;;;5011511;28;20051;-77
2021/11/12 01:33:08;;;;;;;17.70;13.35;;;9.10;74.90;;;;;;5009249;28;20030;-77
2021/11/12 01:35:34;;;;;;;17.40;13.13;;;9.10;74.60;;;;;;5008597;28;20030;-77
2021/11/12 01:38:02;;;;;;;19.48;13.18;;;9.00;73.90;;;;;;5008491;28;20030;-75
2021/11/12 01:40:29;;;;;;;19.98;13.38;;;9.00;74.50;;;;;;5008780;28;20027;-76
2021/11/12 01:43:02;;;;;;;20.58;14.32;;;9.00;74.50;;;;;;4992771;28;20520;-77
2021/11/12 01:45:44;;;;;;;20.83;13.85;;;8.90;73.80;;;;;;5011360;28;20537;-76
2021/11/12 01:50:43;;;;;;;19.73;14.00;;;8.90;74.00;;;;;;5008402;28;20398;-77
2021/11/12 01:53:12;;;;;;;16.73;12.65;;;8.90;74.10;;;;;;5008326;28;20496;-77
2021/11/12 01:55:47;;;;;;;18.77;12.82;;;8.80;74.30;;;;;;5006261;28;20371;-77
2021/11/12 02:00:48;;;;;;;19.48;12.93;;;8.90;76.30;;;;;;5008103;28;20514;-77
2021/11/12 02:03:13;;;;;;;19.42;14.10;;;8.80;74.80;;;;;;5009752;28;20030;-77
2021/11/12 02:05:39;;;;;;;21.75;14.27;;;8.60;74.10;;;;;;5008233;28;20077;-77
2021/11/12 02:08:05;;;;;;;21.10;15.05;;;8.30;74.80;;;;;;4991146;28;20022;-77
2021/11/12 02:10:31;;;;;;;18.85;13.43;;;8.20;74.70;;;;;;5008309;28;20418;-77
2021/11/12 02:15:24;;;;;;;17.13;13.13;;;8.20;76.10;;;;;;5014087;28;20037;-77
2021/11/12 02:18:14;;;;;;;18.90;13.27;;;8.40;76.10;;;;;;5012221;28;20038;-77
2021/11/12 02:26:25;;;;;;;17.98;13.30;;;8.60;75.10;;;;;;4972796;28;20054;-77
2021/11/12 02:28:56;;;;;;;17.10;12.48;;;8.50;74.90;;;;;;4972476;28;20038;-77
2021/11/12 02:31:25;;;;;;;17.50;12.35;;;8.50;75.30;;;;;;4971881;28;20047;-77
2021/11/12 02:33:52;;;;;;;17.98;13.20;;;8.60;75.70;;;;;;4972827;28;20166;-77
2021/11/12 02:36:18;;;;;;;18.98;13.27;;;8.60;75.30;;;;;;4973835;28;20034;-77
2021/11/12 02:38:49;;;;;;;18.40;13.13;;;8.60;75.10;;;;;;4972471;28;20078;-76
2021/11/12 02:41:16;;;;;;;20.17;13.25;;;8.60;74.90;;;;;;4972519;28;20077;-76
2021/11/12 02:43:45;;;;;;;18.65;12.43;;;8.60;74.70;;;;;;4973405;28;20041;-77
2021/11/12 02:46:13;;;;;;;19.73;12.98;;;8.50;75.00;;;;;;4971839;28;20043;-76
2021/11/12 02:48:41;;;;;;;17.50;12.18;;;8.50;75.10;;;;;;4973769;28;20042;-76
2021/11/12 02:51:11;;;;;;;18.50;12.77;;;8.50;75.10;;;;;;4973352;28;20035;-76
2021/11/12 02:53:37;;;;;;;18.25;12.35;;;8.60;75.00;;;;;;4971879;28;20046;-77
2021/11/12 02:56:08;;;;;;;17.10;12.40;;;8.60;75.00;;;;;;4972082;28;20129;-76
2021/11/12 02:58:34;;;;;;;17.70;13.02;;;8.60;74.90;;;;;;4980223;28;20494;-76
2021/11/12 03:01:01;;;;;;;19.77;13.27;;;8.50;74.60;;;;;;5013022;28;20046;-76
2021/11/12 03:03:28;;;;;;;15.80;11.60;;;8.50;74.70;;;;;;5013746;28;20022;-76
2021/11/12 03:05:53;;;;;;;18.05;12.45;;;8.50;75.10;;;;;;5011394;28;20088;-76
2021/11/12 03:08:19;;;;;;;19.15;12.38;;;8.40;74.90;;;;;;5011124;28;20482;-76
2021/11/12 03:10:45;;;;;;;17.58;12.73;;;8.40;75.30;;;;;;5011695;28;20037;-76
2021/11/12 03:13:11;;;;;;;18.08;12.65;;;8.40;76.00;;;;;;5019037;28;20410;-76
2021/11/12 03:15:37;;;;;;;19.52;13.00;;;8.30;75.90;;;;;;5002398;28;20030;-75
2021/11/12 03:18:03;;;;;;;18.10;12.85;;;8.30;76.20;;;;;;5011020;28;20034;-76
2021/11/12 03:20:30;;;;;;;17.85;12.85;;;8.10;75.20;;;;;;5011126;28;20025;-76
2021/11/12 03:23:04;;;;;;;16.38;11.88;;;8.00;76.00;;;;;;5010944;28;20065;-76
2021/11/12 05:44:02;;;;;;;18.35;14.57;;;7.70;81.10;;;;;;4967925;28;20899;-76
2021/11/12 05:46:40;;;;;;;19.25;14.50;;;7.70;81.30;;;;;;4968677;28;20502;-76
2021/11/12 05:57:30;;;;;;;17.65;14.77;;;7.60;82.20;;;;;;4912695;29;20473;-75
2021/11/12 05:59:56;;;;;;;19.27;14.80;;;7.50;82.00;;;;;;4911649;29;20511;-77
2021/11/12 06:02:22;;;;;;;17.90;14.20;;;7.50;82.40;;;;;;4911506;29;20417;-76
2021/11/12 06:04:48;;;;;;;17.90;14.43;;;7.50;82.70;;;;;;4942341;29;20455;-76
2021/11/12 06:07:14;;;;;;;17.52;14.40;;;7.40;82.10;;;;;;4946819;29;20528;-76
2021/11/12 06:09:40;;;;;;;18.55;14.57;;;7.30;82.80;;;;;;4950381;29;20409;-77
2021/11/12 06:12:11;;;;;;;17.40;14.20;;;7.30;83.10;;;;;;4953773;28;20396;-77
2021/11/12 06:14:36;;;;;;;18.02;14.23;;;7.30;83.30;;;;;;4950572;28;21236;-77
2021/11/12 06:17:02;;;;;;;17.77;14.30;;;7.40;83.90;;;;;;4947061;29;20676;-77
2021/11/12 06:19:28;;;;;;;17.77;14.75;;;7.40;82.80;;;;;;4948513;28;20794;-76
2021/11/12 06:21:54;;;;;;;18.67;14.37;;;7.40;82.80;;;;;;4948687;28;20906;-77
2021/11/12 06:24:19;;;;;;;20.02;14.52;;;7.40;82.90;;;;;;4948302;29;20410;-77
2021/11/12 06:26:46;;;;;;;17.27;14.15;;;7.40;82.90;;;;;;4951899;28;20449;-77
2021/11/12 06:29:12;;;;;;;17.90;13.95;;;7.50;83.30;;;;;;5002044;28;20467;-77
2021/11/12 06:31:38;;;;;;;18.42;14.45;;;7.50;83.00;;;;;;5006936;28;20404;-78
2021/11/12 06:34:04;;;;;;;17.73;14.45;;;7.60;82.70;;;;;;5007772;28;20441;-75
2021/11/12 06:36:29;;;;;;;16.98;14.07;;;7.50;82.70;;;;;;4988745;28;20406;-75
2021/11/12 06:38:56;;;;;;;19.05;14.90;;;7.50;83.00;;;;;;5005969;28;20443;-77
2021/11/12 06:41:38;;;;;;;19.33;14.20;;;7.50;82.50;;;;;;5008556;28;20400;-77
2021/11/12 06:49:53;;;;;;;18.52;14.77;;;7.40;83.60;;;;;;5007249;28;20456;-76
2021/11/12 06:52:20;;;;;;;19.38;15.32;;;7.40;82.80;;;;;;4992446;28;20953;-76
2021/11/12 06:54:46;;;;;;;18.85;14.68;;;7.30;82.70;;;;;;5009155;28;20443;-76
2021/11/12 06:57:14;;;;;;;17.90;14.88;;;7.20;83.00;;;;;;4991788;28;20439;-77
2021/11/12 06:59:40;;;;;;;19.25;14.88;;;7.30;83.50;;;;;;5008897;28;20491;-77
2021/11/12 07:02:08;;;;;;;18.92;14.68;;;7.40;84.00;;;;;;5010155;28;20401;-76
2021/11/12 07:04:34;;;;;;;18.27;14.60;;;7.40;82.70;;;;;;5010074;28;20454;-77
2021/11/12 07:07:00;;;;;;;18.85;14.85;;;7.30;83.20;;;;;;5011292;28;20940;-76
2021/11/12 07:09:26;;;;;;;19.03;15.00;;;7.60;83.10;;;;;;5012574;28;20476;-75
2021/11/12 07:11:51;;;;;;;20.73;15.57;;;7.60;82.40;;;;;;5014273;28;20822;-77
2021/11/12 07:14:17;;;;;;;19.25;15.50;;;7.70;83.40;;;;;;5016479;28;20429;-77
2021/11/12 07:16:43;;;;;;;18.35;14.57;;;7.80;82.40;;;;;;4992747;28;20797;-74
2021/11/12 07:19:09;;;;;;;17.77;14.32;;;7.80;81.70;;;;;;5010191;28;20908;-77
2021/11/12 07:21:35;;;;;;;18.00;14.60;;;7.80;81.20;;;;;;5013383;28;20478;-75
2021/11/12 07:24:01;;;;;;;18.00;14.37;;;7.80;81.80;;;;;;5009729;28;20419;-75
2021/11/12 07:26:28;;;;;;;18.30;14.50;;;7.90;81.20;;;;;;5009535;28;20491;-75
2021/11/12 07:28:53;;;;;;;17.57;14.50;;;7.90;81.10;;;;;;5009688;28;21013;-75
2021/11/12 07:31:19;;;;;;;17.40;13.57;;;7.90;81.10;;;;;;5009728;28;20525;-75
2021/11/12 07:33:47;;;;;;;19.45;13.93;;;8.00;81.20;;;;;;5012220;28;20478;-76
2021/11/12 07:36:23;;;;;;;17.75;13.85;;;8.20;81.00;;;;;;4994383;28;20405;-76
2021/11/12 07:44:11;;;;;;;20.25;14.80;;;8.40;80.00;;;;;;5009316;28;20459;-76
2021/11/12 07:46:41;;;;;;;17.80;14.05;;;8.40;79.70;;;;;;5009458;28;20405;-75
2021/11/12 07:49:11;;;;;;;18.20;14.40;;;8.40;79.60;;;;;;5009564;28;20402;-75
2021/11/12 07:51:39;;;;;;;18.95;14.70;;;8.30;79.80;;;;;;5008905;28;20388;-75
2021/11/12 07:54:05;;;;;;;19.23;15.13;;;8.20;80.20;;;;;;5009298;28;20432;-76
2021/11/12 07:56:31;;;;;;;19.50;15.15;;;8.20;79.80;;;;;;5009441;28;20401;-76
2021/11/12 07:58:58;;;;;;;19.77;15.10;;;8.10;80.10;;;;;;5009079;28;20413;-76
2021/11/12 08:01:24;;;;;;;17.70;14.73;;;8.00;80.70;;;;;;5009149;28;20498;-75
2021/11/12 08:03:54;;;;;;;21.07;15.27;;;8.20;81.50;;;;;;5010797;28;20598;-76
2021/11/12 08:06:21;;;;;;;19.33;15.02;;;8.30;81.30;;;;;;5010563;28;20432;-75
2021/11/12 08:08:54;;;;;;;19.63;15.10;;;8.30;80.70;;;;;;5008881;28;20397;-75
2021/11/12 08:11:25;;;;;;;19.08;14.90;;;8.30;80.70;;;;;;4991309;28;20561;-75
2021/11/12 08:13:56;;;;;;;19.17;15.23;;;8.10;80.80;;;;;;5019144;28;20890;-77
2021/11/12 08:16:40;;;;;;;20.15;15.55;;;8.00;81.20;;;;;;5008975;28;20482;-77
2021/11/12 08:19:33;;;;;;;21.20;14.97;;;7.90;81.50;;;;;;5009689;28;20492;-77
2021/11/12 08:24:35;;;;;;;19.17;15.13;;;7.90;82.50;;;;;;5010237;28;20393;-77
2021/11/12 08:32:30;;;;;;;21.20;15.53;;;8.20;82.70;;;;;;5008169;28;20470;-77
2021/11/12 08:42:58;;;;;;;30.30;19.17;;;8.50;84.00;;;;;;5010759;28;20385;-77
2021/11/12 08:45:27;;;;;;;30.40;19.40;;;8.70;83.60;;;;;;5009416;28;20427;-77
2021/11/12 08:48:18;;;;;;;32.58;20.48;;;8.90;84.00;;;;;;5006514;28;20408;-77
2021/11/12 08:50:40;;;;;;;32.50;20.60;;;8.90;83.80;;;;;;5008190;28;20908;-77
2021/11/12 08:53:08;;;;;;;33.03;20.98;;;9.00;84.30;;;;;;5008099;28;20387;-77
2021/11/12 08:55:35;;;;;;;32.85;21.83;;;9.10;84.30;;;;;;5008264;28;21134;-77
2021/11/12 08:58:02;;;;;;;34.80;21.98;;;9.20;85.80;;;;;;4991721;28;20870;-76
2021/11/12 09:00:28;;;;;;;36.27;22.90;;;9.30;84.80;;;;;;5010572;28;20470;-77
2021/11/12 09:02:55;;;;;;;37.53;22.58;;;9.10;84.80;;;;;;5007140;28;20400;-76
2021/11/12 09:05:21;;;;;;;33.13;21.15;;;8.90;86.20;;;;;;5005975;28;20408;-76
2021/11/12 09:07:51;;;;;;;37.42;22.55;;;9.00;87.00;;;;;;5008318;28;20412;-77
2021/11/12 09:10:18;;;;;;;37.35;24.15;;;9.10;87.30;;;;;;5006046;28;20429;-77
2021/11/12 09:12:48;;;;;;;43.08;25.00;;;9.20;87.00;;;;;;5005659;28;20412;-74
2021/11/12 09:15:24;;;;;;;33.88;22.50;;;9.20;86.80;;;;;;4994956;28;20408;-74
2021/11/12 09:17:49;;;;;;;33.83;21.20;;;9.40;87.70;;;;;;4986813;28;20440;-76
2021/11/12 09:20:15;;;;;;;33.53;21.80;;;9.40;87.70;;;;;;5000596;28;20441;-77
2021/11/12 09:22:41;;;;;;;30.45;21.02;;;9.50;88.00;;;;;;5003132;28;20414;-76
2021/11/12 09:25:09;;;;;;;31.38;20.92;;;9.50;87.60;;;;;;5007977;28;20904;-77
2021/11/12 09:27:35;;;;;;;34.15;21.02;;;9.50;88.10;;;;;;4994551;28;20415;-76
2021/11/12 09:30:06;;;;;;;32.97;21.23;;;9.50;88.60;;;;;;5007260;28;20401;-76
2021/11/12 09:32:32;;;;;;;31.55;21.52;;;9.60;88.70;;;;;;5007210;28;20440;-76
2021/11/12 09:34:58;;;;;;;28.27;19.65;;;9.60;87.70;;;;;;5005241;28;20429;-77
2021/11/12 09:37:24;;;;;;;31.80;19.80;;;9.70;88.30;;;;;;5011028;28;20780;-77
2021/11/12 09:39:57;;;;;;;27.60;18.92;;;9.80;88.40;;;;;;5009639;28;20420;-77
2021/11/12 09:42:25;;;;;;;29.85;18.95;;;9.70;89.00;;;;;;5008817;28;20385;-76
2021/11/12 09:44:51;;;;;;;34.50;19.90;;;9.70;88.80;;;;;;5006924;28;20393;-77
2021/11/12 09:47:23;;;;;;;26.25;19.33;;;9.70;89.50;;;;;;4990035;28;20407;-77
2021/11/12 09:49:50;;;;;;;33.85;20.67;;;9.80;90.00;;;;;;5016409;28;20908;-77
2021/11/12 09:52:16;;;;;;;34.35;20.50;;;9.80;90.30;;;;;;5007269;28;20516;-77
2021/11/12 09:54:42;;;;;;;32.17;20.65;;;9.80;90.50;;;;;;5007695;28;20429;-76
2021/11/12 09:57:09;;;;;;;33.47;21.13;;;9.80;90.80;;;;;;4997791;28;20395;-76
2021/11/12 09:59:35;;;;;;;29.02;19.92;;;9.90;90.80;;;;;;4985989;28;20491;-76
2021/11/12 10:02:05;;;;;;;30.38;19.30;;;10.10;90.60;;;;;;5015875;28;20436;-76
2021/11/12 10:04:30;;;;;;;32.75;19.85;;;10.20;90.50;;;;;;5008397;28;20451;-76
2021/11/12 10:06:58;;;;;;;28.63;19.27;;;10.10;90.60;;;;;;5008877;28;20389;-73
2021/11/12 10:09:24;;;;;;;24.60;17.60;;;10.20;90.50;;;;;;5008650;28;20935;-73
2021/11/12 10:11:54;;;;;;;27.10;17.47;;;10.30;90.30;;;;;;5010810;28;20419;-72
2021/11/12 10:14:41;;;;;;;25.42;18.30;;;10.40;90.20;;;;;;5012175;28;20424;-73
2021/11/12 10:17:09;;;;;;;26.27;17.52;;;10.30;90.10;;;;;;5009933;28;20409;-74
2021/11/12 10:19:45;;;;;;;28.00;17.58;;;10.40;90.00;;;;;;5006338;28;20409;-70
2021/11/12 10:22:11;;;;;;;23.63;17.25;;;10.30;90.00;;;;;;4991517;28;20393;-76
2021/11/12 10:24:42;;;;;;;23.67;17.23;;;10.30;90.10;;;;;;5003236;28;20455;-71
2021/11/12 10:27:17;;;;;;;27.73;19.15;;;10.40;90.20;;;;;;5008219;28;20459;-72
2021/11/12 10:29:49;;;;;;;25.45;17.75;;;10.40;90.30;;;;;;5008371;28;20499;-74
2021/11/12 10:32:35;;;;;;;25.02;17.90;;;10.40;90.60;;;;;;5015106;28;20405;-74
2021/11/12 10:35:09;;;;;;;23.58;16.92;;;10.50;90.50;;;;;;5018007;28;20462;-72
2021/11/12 10:37:37;;;;;;;22.90;17.08;;;10.50;90.10;;;;;;5007304;28;20501;-72
2021/11/12 10:40:12;;;;;;;26.13;17.75;;;10.60;90.40;;;;;;5005984;28;20412;-71
2021/11/12 10:42:47;;;;;;;24.58;17.70;;;10.60;90.30;;;;;;5008620;28;20439;-73
2021/11/12 10:45:16;;;;;;;24.67;17.53;;;10.70;90.50;;;;;;5011642;28;20393;-71
2021/11/12 10:47:52;;;;;;;24.67;17.60;;;10.70;90.20;;;;;;5008982;28;20408;-71
2021/11/12 10:50:19;;;;;;;25.60;17.85;;;10.70;90.40;;;;;;5008725;28;20417;-71
2021/11/12 10:52:46;;;;;;;23.98;17.30;;;10.80;90.60;;;;;;5009030;28;20479;-74
2021/11/12 10:55:23;;;;;;;25.00;18.17;;;10.80;90.50;;;;;;5008085;28;20435;-73
2021/11/12 10:58:01;;;;;;;25.70;17.75;;;10.90;90.40;;;;;;5008416;28;20726;-72
2021/11/12 11:00:31;;;;;;;27.02;18.60;;;11.00;90.50;;;;;;5011149;28;20904;-74
2021/11/12 11:03:04;;;;;;;26.10;19.08;;;11.10;90.40;;;;;;5009709;28;20408;-74
2021/11/12 11:05:41;;;;;;;28.43;19.10;;;11.10;90.30;;;;;;5008978;28;20579;-71
2021/11/12 11:08:29;;;;;;;27.35;19.33;;;11.20;90.60;;;;;;5008723;28;20428;-72
2021/11/12 11:10:59;;;;;;;25.50;18.95;;;11.50;90.40;;;;;;4999628;28;20400;-72
2021/11/12 11:13:31;;;;;;;26.90;19.20;;;11.50;90.00;;;;;;5015933;28;20926;-72
2021/11/12 11:16:00;;;;;;;25.25;18.35;;;11.70;90.10;;;;;;5014452;28;20379;-71
2021/11/12 11:18:30;;;;;;;25.10;18.73;;;11.80;90.20;;;;;;5010719;28;20404;-71
2021/11/12 11:23:48;;;;;;;22.17;14.63;;;12.20;89.60;;;;;;5010534;28;20030;-71
2021/11/12 11:26:21;;;;;;;17.73;12.68;;;12.30;87.70;;;;;;5009905;28;20057;-70
2021/11/12 11:28:55;;;;;;;18.88;13.27;;;12.30;87.70;;;;;;5009203;28;20065;-73
2021/11/12 11:31:22;;;;;;;16.90;12.88;;;12.40;87.90;;;;;;5010105;28;20030;-72
2021/11/12 11:33:52;;;;;;;18.67;12.98;;;12.60;88.10;;;;;;5012071;28;20034;-72
2021/11/12 11:36:23;;;;;;;19.58;12.55;;;12.60;86.80;;;;;;5010855;28;20037;-72
2021/11/12 11:38:51;;;;;;;18.95;12.65;;;12.60;86.70;;;;;;5008961;28;20041;-72
2021/11/12 11:41:20;;;;;;;18.33;11.15;;;12.60;86.70;;;;;;5009280;28;20486;-72
2021/11/12 11:43:47;;;;;;;18.25;12.20;;;12.60;86.40;;;;;;5010062;28;20034;-71
2021/11/12 11:46:34;;;;;;;19.40;13.55;;;12.60;86.40;;;;;;5009261;28;20029;-70
2021/11/12 11:49:02;;;;;;;16.92;11.05;;;12.50;86.10;;;;;;4994047;28;20022;-72
2021/11/12 11:51:29;;;;;;;16.92;11.90;;;12.50;86.10;;;;;;4991760;28;20030;-72
2021/11/12 11:54:05;;;;;;;14.68;10.63;;;12.40;86.70;;;;;;5008655;28;20041;-72
2021/11/12 11:56:34;;;;;;;17.83;10.80;;;12.40;86.70;;;;;;5009619;28;20022;-71
2021/11/12 11:59:10;;;;;;;15.40;10.77;;;12.40;87.00;;;;;;5009788;28;20014;-71
2021/11/12 12:01:46;;;;;;;12.68;8.75;;;12.40;87.10;;;;;;4992730;28;20029;-72
2021/11/12 12:04:15;;;;;;;12.50;9.43;;;12.50;87.40;;;;;;4994428;28;20062;-73
2021/11/12 12:07:02;;;;;;;13.52;9.40;;;12.60;87.20;;;;;;5012778;28;20034;-72
2021/11/12 12:09:49;;;;;;;13.88;9.80;;;12.60;86.90;;;;;;4994751;28;20049;-71
2021/11/12 12:12:30;;;;;;;14.68;9.20;;;12.60;86.80;;;;;;5019745;28;20041;-71
2021/11/12 12:15:05;;;;;;;12.18;8.38;;;12.60;86.70;;;;;;5010959;28;20042;-72
2021/11/12 12:17:32;;;;;;;12.02;8.63;;;12.70;87.10;;;;;;5012434;28;20073;-71
2021/11/12 13:23:00;;;;;;;8.95;6.53;;;13.30;87.20;;;;;;4968797;28;20042;-74
2021/11/12 13:25:47;;;;;;;10.93;7.25;;;13.20;87.50;;;;;;4952843;28;20034;-73
2021/11/12 13:28:21;;;;;;;9.68;6.60;;;13.20;87.40;;;;;;4954397;28;20147;-74
2021/11/12 13:30:51;;;;;;;10.52;5.97;;;13.30;88.10;;;;;;4970183;28;20026;-73
2021/11/12 13:33:37;;;;;;;10.93;7.15;;;13.40;88.20;;;;;;4954041;28;20027;-73
2021/11/12 13:36:12;;;;;;;11.65;7.82;;;13.40;87.60;;;;;;4968821;28;20408;-74
2021/11/12 13:38:42;;;;;;;10.82;7.18;;;13.40;87.90;;;;;;4968315;28;20041;-73
2021/11/12 13:41:11;;;;;;;11.00;6.88;;;13.50;88.00;;;;;;4968740;28;20129;-74
2021/11/12 13:43:39;;;;;;;11.30;7.30;;;13.50;88.00;;;;;;4969064;28;20027;-73
2021/11/12 13:46:05;;;;;;;11.80;6.97;;;13.50;88.20;;;;;;4968885;28;20469;-72
2021/11/12 13:48:43;;;;;;;10.77;6.80;;;13.50;88.00;;;;;;4993149;28;20564;-73
2021/11/12 13:51:09;;;;;;;11.73;7.30;;;13.60;87.90;;;;;;5008477;28;20034;-73
2021/11/12 13:53:35;;;;;;;10.57;7.05;;;13.60;88.30;;;;;;5006828;28;20044;-74
2021/11/12 13:56:02;;;;;;;9.70;7.10;;;13.60;88.20;;;;;;4986993;28;20053;-72
2021/11/12 13:58:28;;;;;;;8.25;5.63;;;13.60;88.20;;;;;;5002628;28;20478;-73
2021/11/12 14:00:55;;;;;;;10.65;6.13;;;13.60;88.60;;;;;;5015682;28;20025;-74
2021/11/12 14:03:39;;;;;;;11.00;6.63;;;13.70;89.50;;;;;;5008892;28;20025;-70
2021/11/12 14:06:11;;;;;;;9.40;6.65;;;13.70;88.20;;;;;;4990490;28;20492;-70
2021/11/12 14:08:42;;;;;;;9.73;6.50;;;13.70;88.90;;;;;;5009230;28;20053;-70
2021/11/12 14:11:26;;;;;;;10.40;6.18;;;13.70;88.50;;;;;;5000370;28;20030;-69
2021/11/12 14:13:55;;;;;;;9.57;5.78;;;13.70;88.40;;;;;;5001246;28;20064;-70
2021/11/12 14:16:55;;;;;;;8.20;6.07;;;13.70;88.90;;;;;;5014214;28;20081;-70
2021/11/12 14:22:55;;;;;;;10.18;5.47;;;13.60;89.00;;;;;;4959900;28;20461;-72
2021/11/12 14:28:26;;;;;;;6.68;4.50;;;13.50;89.60;;;;;;4933386;29;20131;-70
2021/11/12 14:34:03;;;;;;;9.07;4.97;;;13.50;90.00;;;;;;4934223;29;20048;-71
2021/11/12 14:36:33;;;;;;;7.18;4.43;;;13.50;90.00;;;;;;4932968;29;20036;-70
2021/11/12 14:39:24;;;;;;;8.85;5.00;;;13.50;90.20;;;;;;4932501;29;20050;-71
2021/11/12 14:44:47;;;;;;;5.70;3.92;;;13.40;90.10;;;;;;4932424;29;20039;-72
2021/11/12 14:47:24;;;;;;;7.00;4.05;;;13.50;90.60;;;;;;4933922;29;20448;-73
2021/11/12 14:50:03;;;;;;;5.35;3.40;;;13.50;90.40;;;;;;4931219;29;20036;-73
2021/11/12 14:52:28;;;;;;;4.45;3.10;;;13.50;90.60;;;;;;4919552;29;20079;-73
2021/11/12 14:55:05;;;;;;;5.20;3.10;;;13.50;90.80;;;;;;4952455;28;20530;-72
2021/11/12 14:57:34;;;;;;;5.55;2.65;;;13.50;90.70;;;;;;4944055;29;20508;-72
2021/11/12 15:00:09;;;;;;;4.57;3.13;;;13.50;90.60;;;;;;4956521;28;20042;-72
2021/11/12 15:02:36;;;;;;;3.47;2.50;;;13.60;90.60;;;;;;4949495;29;20066;-72
2021/11/12 15:05:04;;;;;;;4.93;2.63;;;13.60;90.70;;;;;;4960941;28;20046;-72
2021/11/12 15:07:39;;;;;;;4.00;2.30;;;13.60;90.60;;;;;;5016089;28;20025;-72
2021/11/12 15:10:11;;;;;;;3.15;2.28;;;13.60;90.60;;;;;;5012928;28;20026;-72
2021/11/12 15:12:37;;;;;;;3.97;2.60;;;13.60;90.70;;;;;;5009481;28;20072;-71
2021/11/12 15:15:04;;;;;;;4.53;2.45;;;13.60;90.80;;;;;;4994697;28;20065;-73
2021/11/12 15:17:30;;;;;;;5.20;2.13;;;13.70;90.60;;;;;;5026826;28;20100;-73
2021/11/12 15:19:57;;;;;;;3.47;2.17;;;13.60;90.60;;;;;;5012069;28;20018;-71
2021/11/12 15:33:03;;;;;;;4.55;2.50;;;13.70;90.60;;;;;;5008551;28;20030;-71
2021/11/12 15:35:31;;;;;;;5.15;2.30;;;13.70;90.40;;;;;;5009912;28;20482;-71
2021/11/12 15:38:06;;;;;;;3.75;2.38;;;13.70;90.50;;;;;;4993458;28;20113;-72
2021/11/12 15:40:37;;;;;;;4.07;2.33;;;13.70;90.60;;;;;;4994286;28;20025;-72
2021/11/12 15:56:19;;;;;;;2.97;1.95;;;13.70;91.20;;;;;;5010290;28;20816;-71
2021/11/12 16:12:01;;;;;;;3.85;1.95;;;13.70;90.60;;;;;;5012634;28;20037;-72
2021/11/12 16:14:32;;;;;;;3.60;1.88;;;13.70;90.60;;;;;;5011425;28;20034;-72
2021/11/12 16:25:12;;;;;;;5.05;1.60;;;13.70;90.50;;;;;;5009749;28;20056;-72
2021/11/12 16:27:44;;;;;;;6.07;1.90;;;13.70;90.50;;;;;;5009186;28;20046;-72
2021/11/12 16:30:10;;;;;;;4.60;1.70;;;13.70;90.50;;;;;;5009597;28;20052;-72
2021/11/12 16:32:48;;;;;;;3.05;1.55;;;13.70;90.50;;;;;;4991292;28;20089;-72
2021/11/12 16:35:19;;;;;;;7.25;1.90;;;13.70;90.40;;;;;;4994301;28;20117;-72
2021/11/12 16:37:48;;;;;;;8.90;1.85;;;13.70;90.40;;;;;;5011876;28;20077;-72
2021/11/12 16:45:22;;;;;;;3.33;1.73;;;13.70;90.40;;;;;;5008515;28;20025;-72
2021/11/12 17:11:38;;;;;;;6.85;2.28;;;13.60;90.40;;;;;;4930711;29;20130;-73
2021/11/12 17:49:06;;;;;;;7.50;2.65;;;13.50;90.70;;;;;;4956584;28;20397;-79
2021/11/12 18:02:31;;;;;;;5.82;2.90;;;13.50;91.00;;;;;;5009097;28;20033;-84
2021/11/12 18:05:12;;;;;;;9.88;3.35;;;13.50;91.00;;;;;;5009480;28;20042;-78
2021/11/12 18:07:54;;;;;;;9.68;3.42;;;13.50;91.00;;;;;;5009340;28;20029;-82
2021/11/12 18:10:52;;;;;;;7.32;3.30;;;13.50;90.90;;;;;;5006239;28;20036;-88
2021/11/12 18:22:24;;;;;;;10.93;3.85;;;13.40;90.90;;;;;;4926119;29;20127;-87
2021/11/12 21:48:15;;;;;;;11.07;2.95;;;13.40;89.00;;;;;;5007914;28;20029;-84
2021/11/12 21:50:43;;;;;;;8.80;2.58;;;13.40;89.00;;;;;;5008310;28;20397;-83
2021/11/12 21:53:09;;;;;;;16.23;4.07;;;13.40;89.00;;;;;;5011957;28;20026;-84
2021/11/12 21:55:35;;;;;;;12.85;3.10;;;13.40;89.00;;;;;;5009589;28;20057;-83
2021/11/12 21:58:02;;;;;;;15.25;3.78;;;13.40;89.00;;;;;;5009578;28;20497;-83
2021/11/12 22:00:29;;;;;;;15.73;3.63;;;13.40;89.90;;;;;;5017354;28;20026;-83
2021/11/12 22:02:56;;;;;;;13.88;3.35;;;13.40;88.90;;;;;;5008120;28;20023;-83
2021/11/12 22:05:21;;;;;;;12.27;3.30;;;13.40;89.00;;;;;;5009914;28;20054;-82
2021/11/12 22:07:48;;;;;;;10.50;3.10;;;13.40;89.70;;;;;;5008921;28;20124;-83
2021/11/12 22:10:13;;;;;;;18.17;3.67;;;13.40;89.00;;;;;;5007866;28;20024;-84
2021/11/12 22:12:39;;;;;;;14.70;3.55;;;13.40;88.60;;;;;;5010956;28;20030;-84
2021/11/12 22:15:07;;;;;;;14.32;3.10;;;13.40;88.60;;;;;;5009093;28;20117;-84
2021/11/12 22:17:33;;;;;;;13.90;3.42;;;13.40;88.70;;;;;;5024911;28;20022;-84
2021/11/12 22:19:59;;;;;;;13.40;3.20;;;13.40;88.90;;;;;;5009985;28;20113;-84
2021/11/12 22:22:25;;;;;;;11.82;3.30;;;13.40;88.90;;;;;;5009487;28;20030;-84
2021/11/12 22:24:50;;;;;;;11.93;3.58;;;13.40;88.60;;;;;;5009057;28;20021;-83
2021/11/12 22:27:16;;;;;;;13.88;3.65;;;13.40;88.40;;;;;;5008913;28;20072;-84
2021/11/12 22:29:42;;;;;;;20.38;8.07;;;13.40;88.60;;;;;;5006191;28;20514;-84
2021/11/12 22:32:08;;;;;;;12.38;4.35;;;13.40;88.60;;;;;;4999701;28;20034;-82
2021/11/12 22:34:34;;;;;;;13.23;3.50;;;13.40;88.50;;;;;;5012324;28;20034;-83
2021/11/12 22:37:00;;;;;;;13.68;3.38;;;13.40;88.40;;;;;;5011452;28;20034;-83
2021/11/12 22:39:26;;;;;;;14.73;3.10;;;13.40;88.50;;;;;;5011097;28;20032;-83
2021/11/12 22:41:52;;;;;;;13.10;3.40;;;13.40;88.30;;;;;;5011422;28;20030;-84
2021/11/12 22:44:19;;;;;;;10.82;2.80;;;13.40;88.40;;;;;;5013561;28;20092;-83
2021/11/12 22:46:45;;;;;;;13.18;3.22;;;13.40;88.30;;;;;;5012391;28;20180;-82
2021/11/12 22:49:11;;;;;;;10.88;2.80;;;13.40;88.30;;;;;;5010742;28;20066;-83
2021/11/12 22:51:38;;;;;;;9.00;2.50;;;13.40;88.40;;;;;;5010826;28;20065;-82
2021/11/12 22:54:05;;;;;;;13.40;2.90;;;13.40;88.30;;;;;;5011376;28;20025;-83
2021/11/12 22:56:31;;;;;;;12.10;2.80;;;13.40;88.30;;;;;;5012716;28;20070;-83
2021/11/12 22:58:57;;;;;;;11.95;3.28;;;13.40;88.40;;;;;;5018227;28;20111;-82
2021/11/12 23:01:27;;;;;;;13.48;3.47;;;13.40;88.30;;;;;;5009925;28;20486;-82
2021/11/12 23:03:53;;;;;;;9.43;2.72;;;13.40;88.30;;;;;;5004205;28;20490;-82
2021/11/12 23:06:19;;;;;;;11.60;3.20;;;13.40;88.30;;;;;;4993384;28;20044;-82
2021/11/12 23:08:45;;;;;;;11.27;2.72;;;13.30;88.50;;;;;;5011201;28;20067;-81
2021/11/12 23:11:12;;;;;;;11.63;2.80;;;13.30;88.60;;;;;;5014741;28;20482;-82